sensor_id;sensor_type;location;lat;lon;timestamp;temperature;humidity
10911;DHT22;5508;49.150;11.030;2024-01-16T00:02:05;-2.30;96.80
10911;DHT22;5508;49.150;11.030;2024-01-16T00:05:08;-2.30;96.40
10911;DHT22;5508;49.150;11.030;2024-01-16T00:08:10;-2.40;97.10
10911;DHT22;5508;49.150;11.030;2024-01-16T00:11:10;-2.30;97.50
10911;DHT22;5508;49.150;11.030;2024-01-16T00:14:11;-2.30;96.90
10911;DHT22;5508;49.150;11.030;2024-01-16T00:17:11;-2.20;96.30
10911;DHT22;5508;49.150;11.030;2024-01-16T00:20:12;-2.20;95.70
10911;DHT22;5508;49.150;11.030;2024-01-16T00:23:13;-2.20;96.10
10911;DHT22;5508;49.150;11.030;2024-01-16T00:26:23;-2.20;96.10
10911;DHT22;5508;49.150;11.030;2024-01-16T00:29:23;-2.10;95.90
10911;DHT22;5508;49.150;11.030;2024-01-16T00:32:24;-2.20;96.50
10911;DHT22;5508;49.150;11.030;2024-01-16T00:35:25;-2.20;96.60
10911;DHT22;5508;49.150;11.030;2024-01-16T00:38:25;-2.20;96.40
10911;DHT22;5508;49.150;11.030;2024-01-16T00:41:26;-2.20;96.10
10911;DHT22;5508;49.150;11.030;2024-01-16T00:44:27;-2.20;95.70
10911;DHT22;5508;49.150;11.030;2024-01-16T00:47:28;-2.20;95.60
10911;DHT22;5508;49.150;11.030;2024-01-16T00:50:29;-2.20;95.10
10911;DHT22;5508;49.150;11.030;2024-01-16T00:53:30;-2.20;95.70
10911;DHT22;5508;49.150;11.030;2024-01-16T00:56:30;-2.20;95.70
10911;DHT22;5508;49.150;11.030;2024-01-16T00:59:33;-2.20;95.40
10911;DHT22;5508;49.150;11.030;2024-01-16T01:02:34;-2.30;95.50
10911;DHT22;5508;49.150;11.030;2024-01-16T01:05:34;-2.30;95.30
10911;DHT22;5508;49.150;11.030;2024-01-16T01:08:35;-2.30;96.00
10911;DHT22;5508;49.150;11.030;2024-01-16T01:11:35;-2.30;96.10
10911;DHT22;5508;49.150;11.030;2024-01-16T01:14:36;-2.30;96.60
10911;DHT22;5508;49.150;11.030;2024-01-16T01:17:37;-2.30;95.90
10911;DHT22;5508;49.150;11.030;2024-01-16T01:20:37;-2.30;95.70
10911;DHT22;5508;49.150;11.030;2024-01-16T01:23:38;-2.30;96.10
10911;DHT22;5508;49.150;11.030;2024-01-16T01:26:38;-2.30;96.00
10911;DHT22;5508;49.150;11.030;2024-01-16T01:29:39;-2.30;96.00
10911;DHT22;5508;49.150;11.030;2024-01-16T01:32:39;-2.30;95.80
10911;DHT22;5508;49.150;11.030;2024-01-16T01:35:40;-2.30;97.10
10911;DHT22;5508;49.150;11.030;2024-01-16T01:38:41;-2.30;96.00
10911;DHT22;5508;49.150;11.030;2024-01-16T01:41:41;-2.30;96.00
10911;DHT22;5508;49.150;11.030;2024-01-16T01:44:42;-2.30;96.20
10911;DHT22;5508;49.150;11.030;2024-01-16T01:47:42;-2.30;96.00
10911;DHT22;5508;49.150;11.030;2024-01-16T01:50:43;-2.30;95.90
10911;DHT22;5508;49.150;11.030;2024-01-16T01:53:44;-2.30;95.90
10911;DHT22;5508;49.150;11.030;2024-01-16T01:56:47;-2.30;95.80
10911;DHT22;5508;49.150;11.030;2024-01-16T01:59:48;-2.30;96.60
10911;DHT22;5508;49.150;11.030;2024-01-16T02:02:48;-2.30;95.70
10911;DHT22;5508;49.150;11.030;2024-01-16T02:05:50;-2.30;95.90
10911;DHT22;5508;49.150;11.030;2024-01-16T02:08:51;-2.30;95.50
10911;DHT22;5508;49.150;11.030;2024-01-16T02:11:52;-2.30;95.70
10911;DHT22;5508;49.150;11.030;2024-01-16T02:14:52;-2.40;95.70
10911;DHT22;5508;49.150;11.030;2024-01-16T02:17:53;-2.30;95.60
10911;DHT22;5508;49.150;11.030;2024-01-16T02:20:57;-2.30;95.00
10911;DHT22;5508;49.150;11.030;2024-01-16T02:23:59;-2.30;94.80
10911;DHT22;5508;49.150;11.030;2024-01-16T02:27:00;-2.30;95.10
10911;DHT22;5508;49.150;11.030;2024-01-16T02:30:01;-2.30;94.90
10911;DHT22;5508;49.150;11.030;2024-01-16T02:33:01;-2.20;94.40
10911;DHT22;5508;49.150;11.030;2024-01-16T02:36:04;-2.30;94.50
10911;DHT22;5508;49.150;11.030;2024-01-16T02:39:04;-2.30;94.60
10911;DHT22;5508;49.150;11.030;2024-01-16T02:42:06;-2.30;94.70
10911;DHT22;5508;49.150;11.030;2024-01-16T02:45:07;-2.30;94.70
10911;DHT22;5508;49.150;11.030;2024-01-16T02:48:08;-2.40;94.70
10911;DHT22;5508;49.150;11.030;2024-01-16T02:51:09;-2.40;94.50
10911;DHT22;5508;49.150;11.030;2024-01-16T02:54:10;-2.40;94.00
10911;DHT22;5508;49.150;11.030;2024-01-16T02:57:10;-2.40;94.30
10911;DHT22;5508;49.150;11.030;2024-01-16T03:00:11;-2.30;93.70
10911;DHT22;5508;49.150;11.030;2024-01-16T03:03:12;-2.30;93.10
10911;DHT22;5508;49.150;11.030;2024-01-16T03:06:24;-2.30;93.30
10911;DHT22;5508;49.150;11.030;2024-01-16T03:09:25;-2.40;94.50
10911;DHT22;5508;49.150;11.030;2024-01-16T03:12:25;-2.30;93.40
10911;DHT22;5508;49.150;11.030;2024-01-16T03:15:26;-2.40;93.30
10911;DHT22;5508;49.150;11.030;2024-01-16T03:18:27;-2.30;93.40
10911;DHT22;5508;49.150;11.030;2024-01-16T03:21:27;-2.30;93.30
10911;DHT22;5508;49.150;11.030;2024-01-16T03:24:28;-2.40;93.50
10911;DHT22;5508;49.150;11.030;2024-01-16T03:27:29;-2.40;93.30
10911;DHT22;5508;49.150;11.030;2024-01-16T03:30:29;-2.40;93.30
10911;DHT22;5508;49.150;11.030;2024-01-16T03:33:30;-2.50;93.70
10911;DHT22;5508;49.150;11.030;2024-01-16T03:36:30;-2.40;93.30
10911;DHT22;5508;49.150;11.030;2024-01-16T03:39:31;-2.50;93.60
10911;DHT22;5508;49.150;11.030;2024-01-16T03:42:31;-2.60;93.80
10911;DHT22;5508;49.150;11.030;2024-01-16T03:45:32;-2.80;94.20
10911;DHT22;5508;49.150;11.030;2024-01-16T03:48:32;-2.80;94.90
10911;DHT22;5508;49.150;11.030;2024-01-16T03:51:33;-2.90;94.90
10911;DHT22;5508;49.150;11.030;2024-01-16T03:54:33;-3.00;95.80
10911;DHT22;5508;49.150;11.030;2024-01-16T03:57:34;-3.00;95.20
10911;DHT22;5508;49.150;11.030;2024-01-16T04:00:35;-3.10;95.30
10911;DHT22;5508;49.150;11.030;2024-01-16T04:03:35;-3.10;96.10
10911;DHT22;5508;49.150;11.030;2024-01-16T04:06:36;-3.20;96.10
10911;DHT22;5508;49.150;11.030;2024-01-16T04:09:37;-3.20;96.30
10911;DHT22;5508;49.150;11.030;2024-01-16T04:12:38;-3.30;96.60
10911;DHT22;5508;49.150;11.030;2024-01-16T04:15:39;-3.40;97.40
10911;DHT22;5508;49.150;11.030;2024-01-16T04:18:41;-3.40;97.90
10911;DHT22;5508;49.150;11.030;2024-01-16T04:21:42;-3.40;98.20
10911;DHT22;5508;49.150;11.030;2024-01-16T04:24:42;-3.30;97.70
10911;DHT22;5508;49.150;11.030;2024-01-16T04:27:44;-3.30;98.00
10911;DHT22;5508;49.150;11.030;2024-01-16T04:30:45;-3.30;97.70
10911;DHT22;5508;49.150;11.030;2024-01-16T04:33:45;-3.30;98.20
10911;DHT22;5508;49.150;11.030;2024-01-16T04:36:46;-3.30;98.10
10911;DHT22;5508;49.150;11.030;2024-01-16T04:39:47;-3.30;98.70
10911;DHT22;5508;49.150;11.030;2024-01-16T04:42:47;-3.10;98.30
10911;DHT22;5508;49.150;11.030;2024-01-16T04:45:48;-3.10;97.90
10911;DHT22;5508;49.150;11.030;2024-01-16T04:48:49;-3.00;97.60
10911;DHT22;5508;49.150;11.030;2024-01-16T04:51:50;-3.10;97.90
10911;DHT22;5508;49.150;11.030;2024-01-16T04:54:51;-3.10;98.10
10911;DHT22;5508;49.150;11.030;2024-01-16T04:57:51;-3.00;97.70
10911;DHT22;5508;49.150;11.030;2024-01-16T05:00:52;-3.10;97.90
10911;DHT22;5508;49.150;11.030;2024-01-16T05:03:53;-3.10;97.60
10911;DHT22;5508;49.150;11.030;2024-01-16T05:06:53;-3.10;97.60
10911;DHT22;5508;49.150;11.030;2024-01-16T05:09:54;-3.10;97.50
10911;DHT22;5508;49.150;11.030;2024-01-16T05:12:55;-3.10;98.40
10911;DHT22;5508;49.150;11.030;2024-01-16T05:15:56;-3.10;97.90
10911;DHT22;5508;49.150;11.030;2024-01-16T05:18:56;-3.10;97.50
10911;DHT22;5508;49.150;11.030;2024-01-16T05:21:57;-3.00;97.60
10911;DHT22;5508;49.150;11.030;2024-01-16T05:24:59;-3.10;97.30
10911;DHT22;5508;49.150;11.030;2024-01-16T05:27:59;-3.20;97.80
10911;DHT22;5508;49.150;11.030;2024-01-16T05:31:01;-3.20;98.20
10911;DHT22;5508;49.150;11.030;2024-01-16T05:34:01;-3.10;98.00
10911;DHT22;5508;49.150;11.030;2024-01-16T05:37:02;-3.20;98.10
10911;DHT22;5508;49.150;11.030;2024-01-16T05:40:03;-3.20;98.60
10911;DHT22;5508;49.150;11.030;2024-01-16T05:43:04;-3.20;98.70
10911;DHT22;5508;49.150;11.030;2024-01-16T05:46:05;-3.20;98.50
10911;DHT22;5508;49.150;11.030;2024-01-16T05:49:05;-3.10;98.80
10911;DHT22;5508;49.150;11.030;2024-01-16T05:52:06;-3.10;99.00
10911;DHT22;5508;49.150;11.030;2024-01-16T05:55:07;-3.00;98.80
10911;DHT22;5508;49.150;11.030;2024-01-16T05:58:08;-3.00;98.40
10911;DHT22;5508;49.150;11.030;2024-01-16T06:01:08;-3.00;98.20
10911;DHT22;5508;49.150;11.030;2024-01-16T06:04:09;-3.00;98.50
10911;DHT22;5508;49.150;11.030;2024-01-16T06:07:09;-3.00;98.50
10911;DHT22;5508;49.150;11.030;2024-01-16T06:10:12;-3.00;98.20
10911;DHT22;5508;49.150;11.030;2024-01-16T06:13:14;-3.00;98.70
10911;DHT22;5508;49.150;11.030;2024-01-16T06:16:14;-3.00;98.70
10911;DHT22;5508;49.150;11.030;2024-01-16T06:19:15;-2.90;98.90
10911;DHT22;5508;49.150;11.030;2024-01-16T06:22:16;-3.00;98.80
10911;DHT22;5508;49.150;11.030;2024-01-16T06:25:17;-2.90;98.90
10911;DHT22;5508;49.150;11.030;2024-01-16T06:28:18;-2.90;98.90
10911;DHT22;5508;49.150;11.030;2024-01-16T06:31:18;-2.90;98.70
10911;DHT22;5508;49.150;11.030;2024-01-16T06:34:19;-2.90;98.70
10911;DHT22;5508;49.150;11.030;2024-01-16T06:37:19;-2.90;99.10
10911;DHT22;5508;49.150;11.030;2024-01-16T06:40:20;-2.90;99.10
10911;DHT22;5508;49.150;11.030;2024-01-16T06:43:21;-3.00;99.30
10911;DHT22;5508;49.150;11.030;2024-01-16T06:46:22;-3.10;97.50
10911;DHT22;5508;49.150;11.030;2024-01-16T06:49:22;-3.40;98.00
10911;DHT22;5508;49.150;11.030;2024-01-16T06:52:23;-3.60;99.60
10911;DHT22;5508;49.150;11.030;2024-01-16T06:55:23;-3.70;99.40
10911;DHT22;5508;49.150;11.030;2024-01-16T06:58:24;-3.80;99.90
10911;DHT22;5508;49.150;11.030;2024-01-16T07:01:24;-3.80;99.90
10911;DHT22;5508;49.150;11.030;2024-01-16T07:04:25;-4.00;99.90
10911;DHT22;5508;49.150;11.030;2024-01-16T07:07:26;-4.10;99.90
10911;DHT22;5508;49.150;11.030;2024-01-16T07:10:26;-4.20;99.90
10911;DHT22;5508;49.150;11.030;2024-01-16T07:13:27;-4.20;99.90
10911;DHT22;5508;49.150;11.030;2024-01-16T07:16:27;-4.20;99.90
10911;DHT22;5508;49.150;11.030;2024-01-16T07:19:28;-4.20;99.90
10911;DHT22;5508;49.150;11.030;2024-01-16T07:22:28;-4.30;99.90
10911;DHT22;5508;49.150;11.030;2024-01-16T07:25:29;-4.40;99.90
10911;DHT22;5508;49.150;11.030;2024-01-16T07:28:30;-4.30;99.90
10911;DHT22;5508;49.150;11.030;2024-01-16T07:31:30;-4.30;99.90
10911;DHT22;5508;49.150;11.030;2024-01-16T07:34:31;-4.30;99.90
10911;DHT22;5508;49.150;11.030;2024-01-16T07:37:31;-4.20;99.90
10911;DHT22;5508;49.150;11.030;2024-01-16T07:40:33;-4.30;99.90
10911;DHT22;5508;49.150;11.030;2024-01-16T07:43:33;-4.20;99.90
10911;DHT22;5508;49.150;11.030;2024-01-16T07:46:35;-4.20;99.90
10911;DHT22;5508;49.150;11.030;2024-01-16T07:49:36;-4.10;99.90
10911;DHT22;5508;49.150;11.030;2024-01-16T07:52:36;-4.10;99.80
10911;DHT22;5508;49.150;11.030;2024-01-16T07:55:37;-4.10;99.90
10911;DHT22;5508;49.150;11.030;2024-01-16T07:58:37;-4.00;99.60
10911;DHT22;5508;49.150;11.030;2024-01-16T08:01:38;-4.00;99.50
10911;DHT22;5508;49.150;11.030;2024-01-16T08:04:39;-4.00;98.70
10911;DHT22;5508;49.150;11.030;2024-01-16T08:07:41;-4.00;98.70
10911;DHT22;5508;49.150;11.030;2024-01-16T08:10:42;-3.90;98.20
10911;DHT22;5508;49.150;11.030;2024-01-16T08:13:43;-3.90;97.70
10911;DHT22;5508;49.150;11.030;2024-01-16T08:16:44;-3.80;97.50
10911;DHT22;5508;49.150;11.030;2024-01-16T08:19:44;-3.70;96.80
10911;DHT22;5508;49.150;11.030;2024-01-16T08:22:45;-3.60;96.20
10911;DHT22;5508;49.150;11.030;2024-01-16T08:25:46;-3.50;95.90
10911;DHT22;5508;49.150;11.030;2024-01-16T08:28:46;-3.50;94.90
10911;DHT22;5508;49.150;11.030;2024-01-16T08:31:47;-3.50;94.10
10911;DHT22;5508;49.150;11.030;2024-01-16T08:34:48;-3.60;94.10
10911;DHT22;5508;49.150;11.030;2024-01-16T08:37:48;-3.60;93.90
10911;DHT22;5508;49.150;11.030;2024-01-16T08:40:50;-3.70;93.00
10911;DHT22;5508;49.150;11.030;2024-01-16T08:43:50;-3.50;93.40
10911;DHT22;5508;49.150;11.030;2024-01-16T08:46:51;-3.40;92.80
10911;DHT22;5508;49.150;11.030;2024-01-16T08:49:52;-3.40;91.60
10911;DHT22;5508;49.150;11.030;2024-01-16T08:52:52;-3.30;92.30
10911;DHT22;5508;49.150;11.030;2024-01-16T08:55:53;-3.40;91.00
10911;DHT22;5508;49.150;11.030;2024-01-16T08:58:53;-3.30;90.20
10911;DHT22;5508;49.150;11.030;2024-01-16T09:01:54;-3.40;90.10
10911;DHT22;5508;49.150;11.030;2024-01-16T09:04:55;-3.30;89.90
10911;DHT22;5508;49.150;11.030;2024-01-16T09:07:55;-3.20;90.00
10911;DHT22;5508;49.150;11.030;2024-01-16T09:10:56;-3.00;90.30
10911;DHT22;5508;49.150;11.030;2024-01-16T09:13:57;-2.80;89.60
10911;DHT22;5508;49.150;11.030;2024-01-16T09:16:58;-2.60;87.30
10911;DHT22;5508;49.150;11.030;2024-01-16T09:19:58;-2.70;86.40
10911;DHT22;5508;49.150;11.030;2024-01-16T09:22:59;-2.70;85.20
10911;DHT22;5508;49.150;11.030;2024-01-16T09:26:00;-2.80;85.80
10911;DHT22;5508;49.150;11.030;2024-01-16T09:29:00;-2.90;85.80
10911;DHT22;5508;49.150;11.030;2024-01-16T09:32:01;-3.00;87.00
10911;DHT22;5508;49.150;11.030;2024-01-16T09:35:05;-2.80;86.40
10911;DHT22;5508;49.150;11.030;2024-01-16T09:38:08;-2.80;86.60
10911;DHT22;5508;49.150;11.030;2024-01-16T09:41:08;-2.60;85.80
10911;DHT22;5508;49.150;11.030;2024-01-16T09:44:10;-2.50;84.50
10911;DHT22;5508;49.150;11.030;2024-01-16T09:47:11;-2.50;83.70
10911;DHT22;5508;49.150;11.030;2024-01-16T09:50:13;-2.30;85.10
10911;DHT22;5508;49.150;11.030;2024-01-16T09:53:15;-2.40;82.60
10911;DHT22;5508;49.150;11.030;2024-01-16T09:56:16;-2.20;82.30
10911;DHT22;5508;49.150;11.030;2024-01-16T09:59:17;-2.10;83.80
10911;DHT22;5508;49.150;11.030;2024-01-16T10:02:19;-1.80;83.00
10911;DHT22;5508;49.150;11.030;2024-01-16T10:05:21;-1.80;80.90
10911;DHT22;5508;49.150;11.030;2024-01-16T10:08:22;-2.00;81.80
10911;DHT22;5508;49.150;11.030;2024-01-16T10:11:23;-1.90;82.80
10911;DHT22;5508;49.150;11.030;2024-01-16T10:14:24;-1.90;82.60
10911;DHT22;5508;49.150;11.030;2024-01-16T10:17:43;-1.80;81.80
10911;DHT22;5508;49.150;11.030;2024-01-16T10:20:44;-1.50;82.40
10911;DHT22;5508;49.150;11.030;2024-01-16T10:23:44;-1.30;79.30
10911;DHT22;5508;49.150;11.030;2024-01-16T10:26:45;-1.10;79.40
10911;DHT22;5508;49.150;11.030;2024-01-16T10:29:55;-0.90;78.90
10911;DHT22;5508;49.150;11.030;2024-01-16T10:33:12;-0.60;78.20
10911;DHT22;5508;49.150;11.030;2024-01-16T10:36:16;-1.00;78.60
10911;DHT22;5508;49.150;11.030;2024-01-16T10:39:16;-1.20;77.80
10911;DHT22;5508;49.150;11.030;2024-01-16T10:42:17;-1.00;77.90
10911;DHT22;5508;49.150;11.030;2024-01-16T10:45:20;-1.00;77.60
10911;DHT22;5508;49.150;11.030;2024-01-16T10:48:22;-0.90;78.60
10911;DHT22;5508;49.150;11.030;2024-01-16T10:51:23;-0.60;76.30
10911;DHT22;5508;49.150;11.030;2024-01-16T10:54:25;-0.50;76.70
10911;DHT22;5508;49.150;11.030;2024-01-16T10:57:26;-0.50;76.10
10911;DHT22;5508;49.150;11.030;2024-01-16T11:00:31;-0.70;76.10
10911;DHT22;5508;49.150;11.030;2024-01-16T11:03:47;-0.80;76.20
10911;DHT22;5508;49.150;11.030;2024-01-16T11:06:51;-0.80;77.10
10911;DHT22;5508;49.150;11.030;2024-01-16T11:09:54;-0.70;77.30
10911;DHT22;5508;49.150;11.030;2024-01-16T11:12:56;-0.70;75.10
10911;DHT22;5508;49.150;11.030;2024-01-16T11:15:59;-0.80;75.50
10911;DHT22;5508;49.150;11.030;2024-01-16T11:19:03;-0.70;76.60
10911;DHT22;5508;49.150;11.030;2024-01-16T11:22:05;-0.80;75.70
10911;DHT22;5508;49.150;11.030;2024-01-16T11:25:14;-1.00;75.80
10911;DHT22;5508;49.150;11.030;2024-01-16T11:28:15;-1.10;76.30
10911;DHT22;5508;49.150;11.030;2024-01-16T11:31:35;-1.10;76.80
10911;DHT22;5508;49.150;11.030;2024-01-16T11:37:42;-0.70;76.50
10911;DHT22;5508;49.150;11.030;2024-01-16T11:40:43;-0.60;74.80
10911;DHT22;5508;49.150;11.030;2024-01-16T11:43:44;-0.40;74.60
10911;DHT22;5508;49.150;11.030;2024-01-16T11:47:00;-0.50;73.40
10911;DHT22;5508;49.150;11.030;2024-01-16T11:50:11;-0.40;74.30
10911;DHT22;5508;49.150;11.030;2024-01-16T11:53:34;-0.20;73.30
10911;DHT22;5508;49.150;11.030;2024-01-16T12:03:02;-0.10;72.40
10911;DHT22;5508;49.150;11.030;2024-01-16T12:06:06;0.00;71.60
10911;DHT22;5508;49.150;11.030;2024-01-16T12:09:13;-0.10;72.10
10911;DHT22;5508;49.150;11.030;2024-01-16T12:12:15;0.30;72.30
10911;DHT22;5508;49.150;11.030;2024-01-16T12:15:20;0.30;70.70
10911;DHT22;5508;49.150;11.030;2024-01-16T12:18:21;0.40;70.30
10911;DHT22;5508;49.150;11.030;2024-01-16T12:21:21;0.30;71.50
10911;DHT22;5508;49.150;11.030;2024-01-16T12:24:22;0.20;71.60
10911;DHT22;5508;49.150;11.030;2024-01-16T12:27:26;0.20;71.30
10911;DHT22;5508;49.150;11.030;2024-01-16T12:30:27;0.30;71.70
10911;DHT22;5508;49.150;11.030;2024-01-16T12:33:28;0.30;73.80
10911;DHT22;5508;49.150;11.030;2024-01-16T12:36:29;0.30;72.10
10911;DHT22;5508;49.150;11.030;2024-01-16T12:39:29;0.10;70.10
10911;DHT22;5508;49.150;11.030;2024-01-16T12:42:30;0.20;69.60
10911;DHT22;5508;49.150;11.030;2024-01-16T12:45:31;0.10;71.50
10911;DHT22;5508;49.150;11.030;2024-01-16T12:48:32;0.20;69.40
10911;DHT22;5508;49.150;11.030;2024-01-16T12:51:33;0.00;70.60
10911;DHT22;5508;49.150;11.030;2024-01-16T12:54:34;0.00;70.20
10911;DHT22;5508;49.150;11.030;2024-01-16T12:57:35;0.00;70.70
10911;DHT22;5508;49.150;11.030;2024-01-16T13:00:37;-0.10;71.70
10911;DHT22;5508;49.150;11.030;2024-01-16T13:03:39;-0.20;71.30
10911;DHT22;5508;49.150;11.030;2024-01-16T13:06:40;-0.40;71.90
10911;DHT22;5508;49.150;11.030;2024-01-16T13:09:44;-0.30;74.10
10911;DHT22;5508;49.150;11.030;2024-01-16T13:12:44;0.00;73.00
10911;DHT22;5508;49.150;11.030;2024-01-16T13:15:46;0.10;73.10
10911;DHT22;5508;49.150;11.030;2024-01-16T13:18:46;0.40;71.00
10911;DHT22;5508;49.150;11.030;2024-01-16T13:21:48;0.60;68.30
10911;DHT22;5508;49.150;11.030;2024-01-16T13:24:48;0.30;68.20
10911;DHT22;5508;49.150;11.030;2024-01-16T13:27:49;0.00;70.60
10911;DHT22;5508;49.150;11.030;2024-01-16T13:30:49;0.00;74.20
10911;DHT22;5508;49.150;11.030;2024-01-16T13:33:50;0.10;71.80
10911;DHT22;5508;49.150;11.030;2024-01-16T13:36:51;-0.10;73.10
10911;DHT22;5508;49.150;11.030;2024-01-16T13:39:52;-0.10;73.70
10911;DHT22;5508;49.150;11.030;2024-01-16T13:42:53;-0.20;73.40
10911;DHT22;5508;49.150;11.030;2024-01-16T13:45:54;-0.30;72.30
10911;DHT22;5508;49.150;11.030;2024-01-16T13:48:55;-0.40;72.70
10911;DHT22;5508;49.150;11.030;2024-01-16T13:51:56;-0.60;74.10
10911;DHT22;5508;49.150;11.030;2024-01-16T13:54:56;-0.70;74.30
10911;DHT22;5508;49.150;11.030;2024-01-16T13:58:02;-0.90;75.80
10911;DHT22;5508;49.150;11.030;2024-01-16T14:01:03;-0.90;77.40
10911;DHT22;5508;49.150;11.030;2024-01-16T14:04:04;-1.00;78.90
10911;DHT22;5508;49.150;11.030;2024-01-16T14:07:05;-1.10;74.80
10911;DHT22;5508;49.150;11.030;2024-01-16T14:10:08;-1.10;76.20
10911;DHT22;5508;49.150;11.030;2024-01-16T14:13:10;-1.00;76.60
10911;DHT22;5508;49.150;11.030;2024-01-16T14:16:10;-1.00;77.20
10911;DHT22;5508;49.150;11.030;2024-01-16T14:19:11;-0.90;76.40
10911;DHT22;5508;49.150;11.030;2024-01-16T14:22:11;-0.80;79.20
10911;DHT22;5508;49.150;11.030;2024-01-16T14:25:12;-0.80;78.10
10911;DHT22;5508;49.150;11.030;2024-01-16T14:28:13;-0.80;78.40
10911;DHT22;5508;49.150;11.030;2024-01-16T14:31:14;-0.70;78.20
10911;DHT22;5508;49.150;11.030;2024-01-16T14:34:15;-0.70;78.50
10911;DHT22;5508;49.150;11.030;2024-01-16T14:37:16;-0.80;78.10
10911;DHT22;5508;49.150;11.030;2024-01-16T14:40:17;-0.80;77.10
10911;DHT22;5508;49.150;11.030;2024-01-16T14:43:21;-0.70;76.00
10911;DHT22;5508;49.150;11.030;2024-01-16T14:46:21;-0.70;75.90
10911;DHT22;5508;49.150;11.030;2024-01-16T14:49:22;-0.80;76.50
10911;DHT22;5508;49.150;11.030;2024-01-16T14:52:23;-1.10;78.80
10911;DHT22;5508;49.150;11.030;2024-01-16T14:55:24;-1.20;78.60
10911;DHT22;5508;49.150;11.030;2024-01-16T14:58:27;-1.30;79.40
10911;DHT22;5508;49.150;11.030;2024-01-16T15:01:28;-1.40;78.70
10911;DHT22;5508;49.150;11.030;2024-01-16T15:04:28;-1.40;79.30
10911;DHT22;5508;49.150;11.030;2024-01-16T15:07:31;-1.50;79.90
10911;DHT22;5508;49.150;11.030;2024-01-16T15:10:32;-1.40;80.50
10911;DHT22;5508;49.150;11.030;2024-01-16T15:13:32;-1.40;80.70
10911;DHT22;5508;49.150;11.030;2024-01-16T15:16:33;-1.50;82.30
10911;DHT22;5508;49.150;11.030;2024-01-16T15:19:37;-1.50;83.60
10911;DHT22;5508;49.150;11.030;2024-01-16T15:22:39;-1.60;84.10
10911;DHT22;5508;49.150;11.030;2024-01-16T15:25:40;-1.60;83.40
10911;DHT22;5508;49.150;11.030;2024-01-16T15:28:40;-1.70;84.80
10911;DHT22;5508;49.150;11.030;2024-01-16T15:31:41;-1.70;85.80
10911;DHT22;5508;49.150;11.030;2024-01-16T15:34:42;-1.80;85.00
10911;DHT22;5508;49.150;11.030;2024-01-16T15:37:42;-1.80;86.40
10911;DHT22;5508;49.150;11.030;2024-01-16T15:40:44;-2.00;86.30
10911;DHT22;5508;49.150;11.030;2024-01-16T15:43:45;-2.10;86.30
10911;DHT22;5508;49.150;11.030;2024-01-16T15:46:56;-2.20;86.70
10911;DHT22;5508;49.150;11.030;2024-01-16T15:49:56;-2.20;87.10
10911;DHT22;5508;49.150;11.030;2024-01-16T15:52:58;-2.30;88.20
10911;DHT22;5508;49.150;11.030;2024-01-16T15:55:58;-2.40;88.30
10911;DHT22;5508;49.150;11.030;2024-01-16T15:58:59;-2.40;88.50
10911;DHT22;5508;49.150;11.030;2024-01-16T16:01:59;-2.50;89.20
10911;DHT22;5508;49.150;11.030;2024-01-16T16:05:00;-2.50;89.40
10911;DHT22;5508;49.150;11.030;2024-01-16T16:08:00;-2.60;88.80
10911;DHT22;5508;49.150;11.030;2024-01-16T16:11:01;-2.60;89.50
10911;DHT22;5508;49.150;11.030;2024-01-16T16:14:02;-2.70;89.70
10911;DHT22;5508;49.150;11.030;2024-01-16T16:17:04;-2.70;90.80
10911;DHT22;5508;49.150;11.030;2024-01-16T16:20:05;-2.70;91.80
10911;DHT22;5508;49.150;11.030;2024-01-16T16:23:06;-2.80;92.30
10911;DHT22;5508;49.150;11.030;2024-01-16T16:26:07;-2.80;92.50
10911;DHT22;5508;49.150;11.030;2024-01-16T16:29:10;-2.90;92.40
10911;DHT22;5508;49.150;11.030;2024-01-16T16:32:10;-2.90;92.80
10911;DHT22;5508;49.150;11.030;2024-01-16T16:35:11;-3.00;93.10
10911;DHT22;5508;49.150;11.030;2024-01-16T16:38:12;-3.00;93.80
10911;DHT22;5508;49.150;11.030;2024-01-16T16:41:12;-3.00;94.10
10911;DHT22;5508;49.150;11.030;2024-01-16T16:44:14;-3.10;94.70
10911;DHT22;5508;49.150;11.030;2024-01-16T16:47:14;-3.10;95.10
10911;DHT22;5508;49.150;11.030;2024-01-16T16:50:18;-3.20;94.80
10911;DHT22;5508;49.150;11.030;2024-01-16T16:53:19;-3.30;94.80
10911;DHT22;5508;49.150;11.030;2024-01-16T16:56:20;-3.30;95.20
10911;DHT22;5508;49.150;11.030;2024-01-16T16:59:21;-3.30;95.20
10911;DHT22;5508;49.150;11.030;2024-01-16T17:02:21;-3.40;95.30
10911;DHT22;5508;49.150;11.030;2024-01-16T17:05:22;-3.40;96.20
10911;DHT22;5508;49.150;11.030;2024-01-16T17:08:23;-3.50;95.60
10911;DHT22;5508;49.150;11.030;2024-01-16T17:11:24;-3.50;96.40
10911;DHT22;5508;49.150;11.030;2024-01-16T17:14:27;-3.60;96.50
10911;DHT22;5508;49.150;11.030;2024-01-16T17:17:28;-3.60;97.10
10911;DHT22;5508;49.150;11.030;2024-01-16T17:20:32;-3.70;96.30
10911;DHT22;5508;49.150;11.030;2024-01-16T17:23:33;-3.80;96.20
10911;DHT22;5508;49.150;11.030;2024-01-16T17:26:34;-3.90;96.30
10911;DHT22;5508;49.150;11.030;2024-01-16T17:29:35;-3.90;96.40
10911;DHT22;5508;49.150;11.030;2024-01-16T17:32:37;-3.90;97.00
10911;DHT22;5508;49.150;11.030;2024-01-16T17:35:38;-3.90;97.20
10911;DHT22;5508;49.150;11.030;2024-01-16T17:38:39;-3.80;98.00
10911;DHT22;5508;49.150;11.030;2024-01-16T17:41:40;-3.80;97.80
10911;DHT22;5508;49.150;11.030;2024-01-16T17:44:47;-3.80;97.20
10911;DHT22;5508;49.150;11.030;2024-01-16T17:47:48;-3.80;97.40
10911;DHT22;5508;49.150;11.030;2024-01-16T17:50:52;-3.90;97.60
10911;DHT22;5508;49.150;11.030;2024-01-16T17:53:52;-3.90;97.40
10911;DHT22;5508;49.150;11.030;2024-01-16T17:56:53;-3.90;97.50
10911;DHT22;5508;49.150;11.030;2024-01-16T17:59:54;-4.00;97.50
10911;DHT22;5508;49.150;11.030;2024-01-16T18:02:55;-4.00;97.80
10911;DHT22;5508;49.150;11.030;2024-01-16T18:05:55;-4.10;98.10
10911;DHT22;5508;49.150;11.030;2024-01-16T18:09:00;-4.20;97.70
10911;DHT22;5508;49.150;11.030;2024-01-16T18:12:09;-4.30;99.00
10911;DHT22;5508;49.150;11.030;2024-01-16T18:15:13;-4.40;99.20
10911;DHT22;5508;49.150;11.030;2024-01-16T18:18:14;-4.50;98.90
10911;DHT22;5508;49.150;11.030;2024-01-16T18:21:16;-4.60;99.10
10911;DHT22;5508;49.150;11.030;2024-01-16T18:24:17;-4.70;98.70
10911;DHT22;5508;49.150;11.030;2024-01-16T18:27:17;-4.70;98.80
10911;DHT22;5508;49.150;11.030;2024-01-16T18:30:18;-4.80;99.10
10911;DHT22;5508;49.150;11.030;2024-01-16T18:33:19;-4.90;99.30
10911;DHT22;5508;49.150;11.030;2024-01-16T18:36:19;-5.00;99.60
10911;DHT22;5508;49.150;11.030;2024-01-16T18:39:20;-5.00;99.90
10911;DHT22;5508;49.150;11.030;2024-01-16T18:42:22;-5.10;99.90
10911;DHT22;5508;49.150;11.030;2024-01-16T18:45:23;-5.10;99.90
10911;DHT22;5508;49.150;11.030;2024-01-16T18:48:23;-5.20;99.90
10911;DHT22;5508;49.150;11.030;2024-01-16T18:51:24;-5.30;99.90
10911;DHT22;5508;49.150;11.030;2024-01-16T18:54:26;-5.40;99.90
10911;DHT22;5508;49.150;11.030;2024-01-16T18:57:26;-5.60;99.90
10911;DHT22;5508;49.150;11.030;2024-01-16T19:00:27;-5.60;99.90
10911;DHT22;5508;49.150;11.030;2024-01-16T19:03:27;-5.70;99.90
10911;DHT22;5508;49.150;11.030;2024-01-16T19:06:28;-5.70;99.90
10911;DHT22;5508;49.150;11.030;2024-01-16T19:09:29;-5.80;99.90
10911;DHT22;5508;49.150;11.030;2024-01-16T19:12:37;-5.80;99.90
10911;DHT22;5508;49.150;11.030;2024-01-16T19:15:37;-5.90;99.90
10911;DHT22;5508;49.150;11.030;2024-01-16T19:18:38;-6.00;99.90